To NAV CANADA Home Page Login to a new session Search on AWWS site Feedback and Comments Disclaimer Vers la page française équivalente Tips FAQ What's new on the site To the Forecasts and Observations / NOTAM section To "File a Flight Plan" website Publications and other links Update of the User's profile FIC Telephone Numbers My Weather Data Folder Route Weather Data Regional Weather Data Local Weather Data To the Forecasts and Observations / NOTAM section
Request Generated 03/26/2015 at 22:25:21 UTC . Weather information available at that time is displayed.

METAR/TAF

HAY RIVER/MERLYN CARTER AIRPORT/NT    

METAR CYHY 262200Z 07011KT 15SM FEW120 FEW160 M01/M07 A2991 RMK
AC1AS1 AC TR SLP140=
METAR CYHY 262100Z 08009KT 15SM FEW040 FEW120 M01/M07 A2991 RMK
SC1AS1 SC TR AC ASOCTD SLP142=
METAR CYHY 262000Z 06006KT 15SM FEW040 FEW120 01/M08 A2993 RMK SC1AC1
SLP147=

TAF AMD CYHY 262207Z 2622/2706 07010KT P6SM FEW120
BECMG 2623/2701 VRB03KT
FM270500 VRB03KT P6SM BKN030 TEMPO 2705/2706 3SM -SHSN BKN015
RMK NXT FCST BY 270000Z=
Your time UTC time
Weather data provided by Environment Canada and NAV CANADA